createdAt,value
2023-12-22T00:00:29.277Z,13.80
2023-12-22T00:03:02.269Z,13.80
2023-12-22T00:05:35.049Z,13.90
2023-12-22T00:08:08.104Z,13.90
2023-12-22T00:10:41.068Z,13.90
2023-12-22T00:13:14.026Z,13.90
2023-12-22T00:15:46.837Z,13.90
2023-12-22T00:18:19.763Z,14.00
2023-12-22T00:20:52.624Z,14.00
2023-12-22T00:23:25.485Z,14.00
2023-12-22T00:25:58.352Z,14.00
2023-12-22T00:28:33.169Z,13.90
2023-12-22T00:31:06.046Z,14.00
2023-12-22T00:33:39.042Z,14.00
2023-12-22T00:36:11.971Z,13.90
2023-12-22T00:38:44.757Z,13.90
2023-12-22T00:41:17.539Z,13.90
2023-12-22T00:43:50.406Z,13.90
2023-12-22T00:46:23.271Z,13.80
2023-12-22T00:48:56.085Z,13.80
2023-12-22T00:51:28.983Z,13.80
2023-12-22T00:54:01.864Z,13.80
2023-12-22T00:56:34.691Z,13.80
2023-12-22T00:59:11.773Z,13.70
2023-12-22T01:01:45.856Z,13.70
2023-12-22T01:04:18.850Z,13.70
2023-12-22T01:06:51.879Z,13.70
2023-12-22T01:09:24.725Z,13.70
2023-12-22T01:11:57.448Z,13.60
2023-12-22T01:14:30.439Z,13.60
2023-12-22T01:17:03.279Z,13.50
2023-12-22T01:19:36.062Z,13.50
2023-12-22T01:22:08.971Z,13.50
2023-12-22T01:24:44.440Z,13.50
2023-12-22T01:27:17.247Z,13.40
2023-12-22T01:29:50.092Z,13.40
2023-12-22T01:32:22.937Z,13.40
2023-12-22T01:34:55.761Z,13.30
2023-12-22T01:37:28.669Z,13.30
2023-12-22T01:40:01.476Z,13.30
2023-12-22T01:42:34.442Z,13.30
2023-12-22T01:45:07.810Z,13.30
2023-12-22T01:47:41.369Z,13.40
2023-12-22T01:50:16.172Z,13.40
2023-12-22T01:52:49.286Z,13.40
2023-12-22T01:55:23.104Z,13.40
2023-12-22T01:57:56.744Z,13.40
2023-12-22T02:00:29.808Z,13.40
2023-12-22T02:03:03.214Z,13.30
2023-12-22T02:05:36.253Z,13.40
2023-12-22T02:08:09.293Z,13.40
2023-12-22T02:10:42.588Z,13.30
2023-12-22T02:13:15.494Z,13.40
2023-12-22T02:15:54.232Z,13.40
2023-12-22T02:18:33.308Z,13.30
2023-12-22T02:21:06.265Z,13.40
2023-12-22T02:23:39.044Z,13.40
2023-12-22T02:26:23.994Z,13.40
2023-12-22T02:28:59.886Z,13.40
2023-12-22T02:31:46.231Z,13.50
2023-12-22T02:34:23.025Z,13.50
2023-12-22T02:36:56.159Z,13.50
2023-12-22T02:39:29.038Z,13.50
2023-12-22T02:42:02.131Z,13.50
2023-12-22T02:44:34.991Z,13.50
2023-12-22T02:47:07.788Z,13.40
2023-12-22T02:49:40.714Z,13.40
2023-12-22T02:52:13.612Z,13.40
2023-12-22T02:54:48.466Z,13.40
2023-12-22T02:57:21.494Z,13.40
2023-12-22T02:59:54.228Z,13.40
2023-12-22T03:02:27.099Z,13.40
2023-12-22T03:04:59.989Z,13.40
2023-12-22T03:07:32.841Z,13.40
2023-12-22T03:10:05.938Z,13.40
2023-12-22T03:12:38.700Z,13.40
2023-12-22T03:15:11.622Z,13.50
2023-12-22T03:17:44.526Z,13.50
2023-12-22T03:20:17.420Z,13.50
2023-12-22T03:22:50.534Z,13.50
2023-12-22T03:25:23.557Z,13.50
2023-12-22T03:27:56.561Z,13.60
2023-12-22T03:30:29.350Z,13.60
2023-12-22T03:33:02.302Z,13.60
2023-12-22T03:35:35.089Z,13.60
2023-12-22T03:38:08.137Z,13.70
2023-12-22T03:40:41.208Z,13.70
2023-12-22T03:43:13.968Z,13.70
2023-12-22T03:45:46.811Z,13.80
2023-12-22T03:48:19.703Z,13.80
2023-12-22T03:50:52.573Z,13.80
2023-12-22T03:53:25.309Z,13.90
2023-12-22T03:55:58.221Z,13.90
2023-12-22T03:58:31.750Z,13.90
2023-12-22T04:01:05.047Z,13.90
2023-12-22T04:03:37.737Z,13.90
2023-12-22T04:06:10.671Z,13.90
2023-12-22T04:08:43.584Z,13.80
2023-12-22T04:11:16.572Z,13.80
2023-12-22T04:13:49.435Z,13.80
2023-12-22T04:16:22.213Z,13.70
2023-12-22T04:18:55.073Z,13.70
2023-12-22T04:21:27.888Z,13.70
2023-12-22T04:24:00.649Z,13.60
2023-12-22T04:26:33.459Z,13.60
2023-12-22T04:29:06.226Z,13.50
2023-12-22T04:31:39.155Z,13.50
2023-12-22T04:34:17.358Z,13.50
2023-12-22T04:36:50.243Z,13.50
2023-12-22T04:39:24.318Z,13.40
2023-12-22T04:41:58.625Z,13.40
2023-12-22T04:44:31.410Z,13.40
2023-12-22T04:47:04.679Z,13.40
2023-12-22T04:49:37.307Z,13.40
2023-12-22T04:52:10.216Z,13.50
2023-12-22T04:54:43.121Z,13.50
2023-12-22T04:57:18.832Z,13.50
2023-12-22T04:59:51.914Z,13.50
2023-12-22T05:02:24.895Z,13.60
2023-12-22T05:04:58.052Z,13.60
2023-12-22T05:07:31.726Z,13.60
2023-12-22T05:10:07.514Z,13.60
2023-12-22T05:12:40.346Z,13.70
2023-12-22T05:15:13.174Z,13.70
2023-12-22T05:17:46.327Z,13.70
2023-12-22T05:20:19.266Z,13.70
2023-12-22T05:22:52.006Z,13.80
2023-12-22T05:25:25.071Z,13.80
2023-12-22T05:27:58.371Z,13.80
2023-12-22T05:30:31.057Z,13.80
2023-12-22T05:33:04.103Z,13.80
2023-12-22T05:35:40.584Z,13.80
2023-12-22T05:38:13.898Z,13.80
2023-12-22T05:40:49.527Z,13.80
2023-12-22T05:43:22.381Z,13.80
2023-12-22T05:45:55.254Z,13.80
2023-12-22T05:48:29.327Z,13.80
2023-12-22T05:51:04.539Z,13.80
2023-12-22T05:53:37.357Z,13.80
2023-12-22T05:56:20.705Z,13.80
2023-12-22T05:58:53.680Z,13.80
2023-12-22T06:01:26.608Z,13.80
2023-12-22T06:03:59.447Z,13.80
2023-12-22T06:06:32.307Z,13.80
2023-12-22T06:09:05.204Z,13.90
2023-12-22T06:11:38.002Z,13.90
2023-12-22T06:14:10.789Z,13.90
2023-12-22T06:16:43.692Z,13.90
2023-12-22T06:19:18.284Z,13.90
2023-12-22T06:21:51.201Z,13.90
2023-12-22T06:24:24.521Z,13.90
2023-12-22T06:26:57.109Z,13.90
2023-12-22T06:29:31.740Z,13.90
2023-12-22T06:32:07.634Z,13.90
2023-12-22T06:34:41.461Z,13.90
2023-12-22T06:37:14.441Z,13.90
2023-12-22T06:39:47.206Z,13.90
2023-12-22T06:42:22.933Z,13.90
2023-12-22T06:44:55.665Z,13.90
2023-12-22T06:47:29.223Z,14.00
2023-12-22T06:50:02.207Z,14.00
2023-12-22T06:52:35.241Z,14.00
2023-12-22T06:55:11.086Z,14.00
2023-12-22T06:57:45.694Z,14.10
2023-12-22T07:00:19.161Z,14.10
2023-12-22T07:03:01.364Z,14.20
2023-12-22T07:05:37.792Z,14.30
2023-12-22T07:08:11.158Z,14.40
2023-12-22T07:10:44.154Z,14.50
2023-12-22T07:13:17.656Z,14.60
2023-12-22T07:15:52.597Z,14.60
2023-12-22T07:18:26.944Z,14.80
2023-12-22T07:21:00.713Z,14.80
2023-12-22T07:23:33.524Z,14.90
2023-12-22T07:26:06.374Z,15.10
2023-12-22T07:28:45.981Z,15.20
2023-12-22T07:31:18.984Z,15.40
2023-12-22T07:33:53.172Z,15.60
2023-12-22T07:36:25.893Z,15.70
2023-12-22T07:39:00.693Z,15.80
2023-12-22T07:41:33.538Z,16.00
2023-12-22T07:44:08.234Z,16.10
2023-12-22T07:46:43.311Z,16.30
2023-12-22T07:49:17.184Z,16.40
2023-12-22T07:51:51.614Z,16.50
2023-12-22T07:54:25.123Z,16.70
2023-12-22T07:56:58.160Z,16.80
2023-12-22T07:59:32.355Z,16.90
2023-12-22T08:02:06.110Z,17.00
2023-12-22T08:04:39.209Z,17.20
2023-12-22T08:07:12.532Z,17.30
2023-12-22T08:09:45.435Z,17.40
2023-12-22T08:12:18.208Z,17.50
2023-12-22T08:14:50.969Z,17.60
2023-12-22T08:17:23.776Z,17.70
2023-12-22T08:20:03.575Z,17.80
2023-12-22T08:22:44.902Z,17.90
2023-12-22T08:25:21.798Z,18.00
2023-12-22T08:27:54.743Z,18.00
2023-12-22T08:30:27.649Z,18.10
2023-12-22T08:33:00.670Z,18.20
2023-12-22T08:35:33.552Z,18.30
2023-12-22T08:38:06.871Z,18.30
2023-12-22T08:40:39.920Z,18.40
2023-12-22T08:43:12.756Z,18.50
2023-12-22T08:45:45.532Z,18.50
2023-12-22T08:48:18.439Z,18.60
2023-12-22T08:50:51.469Z,18.60
2023-12-22T08:53:24.331Z,18.70
2023-12-22T08:55:57.998Z,18.80
2023-12-22T08:58:33.957Z,18.80
2023-12-22T09:01:08.892Z,18.80
2023-12-22T09:03:46.209Z,18.90
2023-12-22T09:06:20.603Z,18.90
2023-12-22T09:08:54.497Z,18.90
2023-12-22T09:11:28.008Z,18.90
2023-12-22T09:14:00.842Z,18.90
2023-12-22T09:16:33.771Z,18.90
2023-12-22T09:19:07.636Z,18.90
2023-12-22T09:21:40.401Z,18.90
2023-12-22T09:24:13.975Z,18.90
2023-12-22T09:26:46.769Z,18.90
2023-12-22T09:29:19.659Z,18.90
2023-12-22T09:31:52.529Z,18.90
2023-12-22T09:34:29.156Z,19.00
2023-12-22T09:37:01.914Z,19.00
2023-12-22T09:39:34.902Z,19.00
2023-12-22T09:42:07.869Z,19.10
2023-12-22T09:44:43.941Z,19.20
2023-12-22T09:47:18.829Z,19.30
2023-12-22T09:49:53.346Z,19.40
2023-12-22T09:52:27.347Z,19.50
2023-12-22T09:55:00.693Z,19.60
2023-12-22T09:57:34.279Z,19.70
2023-12-22T10:00:13.464Z,19.80
2023-12-22T10:02:47.234Z,19.90
2023-12-22T10:05:20.442Z,19.90
2023-12-22T10:07:54.485Z,19.90
2023-12-22T10:10:30.625Z,20.00
2023-12-22T10:13:05.887Z,20.00
2023-12-22T10:15:42.918Z,19.90
2023-12-22T10:18:15.852Z,20.00
2023-12-22T10:20:48.834Z,20.00
2023-12-22T10:23:21.693Z,20.00
2023-12-22T10:25:54.588Z,20.00
2023-12-22T10:28:29.640Z,20.10
2023-12-22T10:31:07.676Z,20.10
2023-12-22T10:33:41.003Z,20.10
2023-12-22T10:36:14.093Z,20.10
2023-12-22T10:38:46.779Z,20.20
2023-12-22T10:41:19.596Z,20.20
2023-12-22T10:43:52.886Z,20.20
2023-12-22T10:46:25.662Z,20.20
2023-12-22T10:48:58.568Z,20.20
2023-12-22T10:51:34.082Z,20.10
2023-12-22T10:54:07.398Z,20.10
2023-12-22T10:56:42.124Z,20.10
2023-12-22T10:59:25.146Z,20.10
2023-12-22T11:01:59.914Z,20.00
2023-12-22T11:04:36.804Z,20.00
2023-12-22T11:07:11.884Z,19.90
2023-12-22T11:09:47.256Z,19.80
2023-12-22T11:12:21.624Z,19.70
2023-12-22T11:14:56.592Z,19.70
2023-12-22T11:17:32.099Z,19.70
2023-12-22T11:20:05.989Z,19.70
2023-12-22T11:22:39.893Z,19.70
2023-12-22T11:25:16.282Z,19.60
2023-12-22T11:27:54.579Z,19.60
2023-12-22T11:30:28.201Z,19.60
2023-12-22T11:33:02.267Z,19.60
2023-12-22T11:35:36.204Z,19.60
2023-12-22T11:38:11.615Z,19.60
2023-12-22T11:40:44.483Z,19.60
2023-12-22T11:43:18.076Z,19.60
2023-12-22T11:45:51.740Z,19.60
2023-12-22T11:48:24.833Z,19.50
2023-12-22T11:50:58.300Z,19.50
2023-12-22T11:53:34.455Z,19.40
2023-12-22T11:56:11.783Z,19.30
2023-12-22T11:59:00.401Z,19.20
2023-12-22T12:01:40.679Z,19.10
2023-12-22T12:04:13.526Z,19.10
2023-12-22T12:06:46.462Z,19.00
2023-12-22T12:09:48.207Z,19.00
2023-12-22T12:12:25.885Z,19.00
2023-12-22T12:15:08.376Z,19.00
2023-12-22T12:17:43.214Z,18.90
2023-12-22T12:20:17.765Z,18.90
2023-12-22T12:22:53.894Z,18.90
2023-12-22T12:25:36.572Z,18.80
2023-12-22T12:28:13.560Z,18.80
2023-12-22T12:30:48.632Z,18.80
2023-12-22T12:33:22.470Z,18.70
2023-12-22T12:35:59.118Z,18.70
2023-12-22T12:38:57.424Z,18.70
2023-12-22T12:41:36.097Z,18.70
2023-12-22T12:44:11.937Z,18.70
2023-12-22T12:46:45.445Z,18.70
2023-12-22T12:49:20.330Z,18.60
2023-12-22T12:51:53.170Z,18.60
2023-12-22T12:54:27.352Z,18.60
2023-12-22T12:57:00.228Z,18.50
2023-12-22T12:59:33.109Z,18.50
2023-12-22T13:02:06.089Z,18.50
2023-12-22T13:04:42.095Z,18.50
2023-12-22T13:07:15.277Z,18.60
2023-12-22T13:09:48.083Z,18.60
2023-12-22T13:12:20.961Z,18.60
2023-12-22T13:14:53.867Z,18.60
2023-12-22T13:17:26.644Z,18.60
2023-12-22T13:19:59.696Z,18.70
2023-12-22T13:22:32.634Z,18.80
2023-12-22T13:25:05.854Z,18.80
2023-12-22T13:27:51.967Z,18.90
2023-12-22T13:30:53.983Z,18.90
2023-12-22T13:33:30.448Z,19.00
2023-12-22T13:36:04.643Z,19.00
2023-12-22T13:38:37.632Z,19.00
2023-12-22T13:41:10.596Z,19.00
2023-12-22T13:43:45.851Z,19.10
2023-12-22T13:46:19.057Z,19.00
2023-12-22T13:48:54.903Z,19.10
2023-12-22T13:51:27.698Z,19.10
2023-12-22T13:54:01.243Z,19.10
2023-12-22T13:56:45.274Z,19.10
2023-12-22T13:59:19.314Z,19.10
2023-12-22T14:01:52.576Z,19.00
2023-12-22T14:04:25.393Z,19.00
2023-12-22T14:06:58.390Z,19.00
2023-12-22T14:09:34.362Z,19.10
2023-12-22T14:12:12.274Z,19.00
2023-12-22T14:14:48.567Z,19.00
2023-12-22T14:17:21.535Z,18.90
2023-12-22T14:19:54.515Z,18.90
2023-12-22T14:22:30.388Z,18.90
2023-12-22T14:25:03.320Z,18.90
2023-12-22T14:27:36.342Z,18.80
2023-12-22T14:30:09.402Z,18.80
2023-12-22T14:32:42.314Z,18.70
2023-12-22T14:35:15.280Z,18.70
2023-12-22T14:37:51.402Z,18.70
2023-12-22T14:40:25.307Z,18.60
2023-12-22T14:42:58.196Z,18.60
2023-12-22T14:45:31.488Z,18.60
2023-12-22T14:48:04.629Z,18.60
2023-12-22T14:50:37.571Z,18.60
2023-12-22T14:53:12.675Z,18.50
2023-12-22T14:55:46.526Z,18.50
2023-12-22T14:58:19.400Z,18.50
2023-12-22T15:00:52.212Z,18.50
2023-12-22T15:03:25.105Z,18.40
2023-12-22T15:05:58.133Z,18.40
2023-12-22T15:08:30.846Z,18.40
2023-12-22T15:11:03.842Z,18.40
2023-12-22T15:13:37.070Z,18.30
2023-12-22T15:16:10.040Z,18.30
2023-12-22T15:18:42.938Z,18.30
2023-12-22T15:21:25.537Z,18.20
2023-12-22T15:23:58.336Z,18.20
2023-12-22T15:26:34.998Z,18.20
2023-12-22T15:29:07.937Z,18.10
2023-12-22T15:31:40.737Z,18.10
2023-12-22T15:34:14.200Z,18.10
2023-12-22T15:36:47.828Z,18.10
2023-12-22T15:39:22.298Z,18.10
2023-12-22T15:41:55.363Z,18.00
2023-12-22T15:44:31.273Z,18.00
2023-12-22T15:47:04.375Z,18.00
2023-12-22T15:49:42.846Z,18.00
2023-12-22T15:52:15.578Z,18.00
2023-12-22T15:54:48.302Z,18.00
2023-12-22T15:57:22.186Z,17.90
2023-12-22T15:59:55.010Z,17.90
2023-12-22T16:02:27.846Z,17.90
2023-12-22T16:05:02.016Z,17.80
2023-12-22T16:07:35.848Z,17.80
2023-12-22T16:10:10.291Z,17.80
2023-12-22T16:12:43.186Z,17.80
2023-12-22T16:15:16.017Z,17.80
2023-12-22T16:17:48.799Z,17.80
2023-12-22T16:20:22.758Z,17.70
2023-12-22T16:22:55.676Z,17.70
2023-12-22T16:25:30.133Z,17.70
2023-12-22T16:28:04.174Z,17.70
2023-12-22T16:30:36.908Z,17.70
2023-12-22T16:33:09.773Z,17.70
2023-12-22T16:35:43.432Z,17.70
2023-12-22T16:38:16.262Z,17.60
2023-12-22T16:40:52.068Z,17.60
2023-12-22T16:43:27.763Z,17.60
2023-12-22T16:46:00.683Z,17.60
2023-12-22T16:48:36.045Z,17.50
2023-12-22T16:51:08.878Z,17.50
2023-12-22T16:53:42.427Z,17.50
2023-12-22T16:56:15.473Z,17.50
2023-12-22T16:58:48.393Z,17.50
2023-12-22T17:01:35.560Z,17.50
2023-12-22T17:04:16.551Z,17.40
2023-12-22T17:06:55.272Z,17.40
2023-12-22T17:09:28.745Z,17.40
2023-12-22T17:12:01.705Z,17.40
2023-12-22T17:14:34.609Z,17.40
2023-12-22T17:17:07.585Z,17.30
2023-12-22T17:19:40.462Z,17.30
2023-12-22T17:22:13.314Z,17.30
2023-12-22T17:24:46.743Z,17.30
2023-12-22T17:27:19.569Z,17.30
2023-12-22T17:29:52.385Z,17.20
2023-12-22T17:32:25.127Z,17.20
2023-12-22T17:34:57.993Z,17.20
2023-12-22T17:37:31.009Z,17.20
2023-12-22T17:40:04.881Z,17.20
2023-12-22T17:42:38.827Z,17.20
2023-12-22T17:45:11.595Z,17.10
2023-12-22T17:47:44.495Z,17.10
2023-12-22T17:50:17.450Z,17.10
2023-12-22T17:52:50.262Z,17.10
2023-12-22T17:55:23.049Z,17.10
2023-12-22T17:57:55.969Z,17.00
2023-12-22T18:00:28.790Z,17.00
2023-12-22T18:03:01.581Z,17.00
2023-12-22T18:05:34.438Z,17.00
2023-12-22T18:08:08.299Z,17.00
2023-12-22T18:10:44.115Z,17.00
2023-12-22T18:13:16.999Z,16.90
2023-12-22T18:15:49.888Z,16.90
2023-12-22T18:18:22.741Z,16.90
2023-12-22T18:20:55.663Z,16.90
2023-12-22T18:23:28.591Z,16.90
2023-12-22T18:26:01.556Z,16.90
2023-12-22T18:28:34.489Z,16.80
2023-12-22T18:31:09.194Z,16.80
2023-12-22T18:33:43.445Z,16.80
2023-12-22T18:36:17.087Z,16.80
2023-12-22T18:38:50.843Z,16.80
2023-12-22T18:41:23.708Z,16.70
2023-12-22T18:43:56.788Z,16.70
2023-12-22T18:46:29.613Z,16.70
2023-12-22T18:49:02.510Z,16.70
2023-12-22T18:51:35.367Z,16.70
2023-12-22T18:54:11.104Z,16.70
2023-12-22T18:56:43.961Z,16.60
2023-12-22T18:59:17.055Z,16.60
2023-12-22T19:02:00.719Z,16.60
2023-12-22T19:04:44.040Z,16.60
2023-12-22T19:07:16.942Z,16.60
2023-12-22T19:09:49.892Z,16.60
2023-12-22T19:12:22.905Z,16.50
2023-12-22T19:14:55.989Z,16.50
2023-12-22T19:17:32.288Z,16.60
2023-12-22T19:20:08.261Z,16.50
2023-12-22T19:22:49.489Z,16.50
2023-12-22T19:25:33.675Z,16.50
2023-12-22T19:28:07.561Z,16.50
2023-12-22T19:30:43.234Z,16.50
2023-12-22T19:33:20.624Z,16.50
2023-12-22T19:35:59.442Z,16.50
2023-12-22T19:38:34.930Z,16.50
2023-12-22T19:41:07.776Z,16.50
2023-12-22T19:43:40.604Z,16.50
2023-12-22T19:46:13.653Z,16.50
2023-12-22T19:48:47.500Z,16.50
2023-12-22T19:51:20.374Z,16.50
2023-12-22T19:53:53.266Z,16.50
2023-12-22T19:56:26.074Z,16.50
2023-12-22T19:58:59.873Z,16.50
2023-12-22T20:01:32.739Z,16.50
2023-12-22T20:04:08.614Z,16.50
2023-12-22T20:06:44.042Z,16.50
2023-12-22T20:09:17.192Z,16.50
2023-12-22T20:11:50.018Z,16.50
2023-12-22T20:14:24.101Z,16.50
2023-12-22T20:16:58.640Z,16.50
2023-12-22T20:19:31.745Z,16.50
2023-12-22T20:22:05.792Z,16.40
2023-12-22T20:24:38.729Z,16.50
2023-12-22T20:27:13.516Z,16.40
2023-12-22T20:29:46.369Z,16.40
2023-12-22T20:32:19.129Z,16.40
2023-12-22T20:34:52.902Z,16.40
2023-12-22T20:37:25.636Z,16.40
2023-12-22T20:39:59.289Z,16.40
2023-12-22T20:42:32.110Z,16.40
2023-12-22T20:45:05.997Z,16.40
2023-12-22T20:47:39.580Z,16.30
2023-12-22T20:50:13.184Z,16.30
2023-12-22T20:52:50.891Z,16.30
2023-12-22T20:55:23.869Z,16.30
2023-12-22T20:57:57.133Z,16.30
2023-12-22T21:00:31.248Z,16.30
2023-12-22T21:03:04.418Z,16.30
2023-12-22T21:06:07.998Z,16.30
2023-12-22T21:08:41.050Z,16.20
2023-12-22T21:11:20.832Z,16.20
2023-12-22T21:13:54.580Z,16.20
2023-12-22T21:16:27.356Z,16.20
2023-12-22T21:19:00.310Z,16.10
2023-12-22T21:21:34.507Z,16.10
2023-12-22T21:24:10.788Z,16.10
2023-12-22T21:26:46.602Z,16.10
2023-12-22T21:29:22.425Z,16.10
2023-12-22T21:31:55.347Z,16.00
2023-12-22T21:34:28.355Z,16.00
2023-12-22T21:37:01.240Z,16.00
2023-12-22T21:39:34.026Z,16.00
2023-12-22T21:42:07.284Z,16.00
2023-12-22T21:44:43.307Z,15.90
2023-12-22T21:47:16.543Z,15.90
2023-12-22T21:49:49.368Z,15.90
2023-12-22T21:52:25.234Z,15.90
2023-12-22T21:54:58.901Z,15.90
2023-12-22T21:57:32.016Z,15.90
2023-12-22T22:00:07.616Z,15.80
2023-12-22T22:02:40.931Z,15.80
2023-12-22T22:05:14.050Z,15.80
2023-12-22T22:07:47.509Z,15.70
2023-12-22T22:10:20.992Z,15.70
2023-12-22T22:12:54.329Z,15.70
2023-12-22T22:15:27.882Z,15.70
2023-12-22T22:18:01.776Z,15.70
2023-12-22T22:20:34.973Z,15.70
2023-12-22T22:23:07.941Z,15.70
2023-12-22T22:25:40.984Z,15.70
2023-12-22T22:28:13.813Z,15.60
2023-12-22T22:30:46.929Z,15.60
2023-12-22T22:33:20.291Z,15.70
2023-12-22T22:35:53.315Z,15.60
2023-12-22T22:38:26.697Z,15.60
2023-12-22T22:40:59.702Z,15.60
2023-12-22T22:43:36.003Z,15.60
2023-12-22T22:46:14.630Z,15.60
2023-12-22T22:48:47.847Z,15.60
2023-12-22T22:51:26.010Z,15.60
2023-12-22T22:53:59.083Z,15.50
2023-12-22T22:56:31.990Z,15.50
2023-12-22T22:59:05.071Z,15.50
2023-12-22T23:01:37.986Z,15.50
2023-12-22T23:04:11.046Z,15.50
2023-12-22T23:06:43.902Z,15.50
2023-12-22T23:09:17.088Z,15.40
2023-12-22T23:11:49.831Z,15.40
2023-12-22T23:14:22.879Z,15.40
2023-12-22T23:16:55.871Z,15.40
2023-12-22T23:19:28.745Z,15.40
2023-12-22T23:22:01.498Z,15.30
2023-12-22T23:24:34.370Z,15.30
2023-12-22T23:27:07.536Z,15.30
2023-12-22T23:29:40.371Z,15.20
2023-12-22T23:32:13.466Z,15.30
2023-12-22T23:34:46.280Z,15.20
2023-12-22T23:37:19.294Z,15.20
2023-12-22T23:39:52.223Z,15.20
2023-12-22T23:42:33.703Z,15.20
2023-12-22T23:45:11.727Z,15.10
2023-12-22T23:47:44.731Z,15.10
2023-12-22T23:50:17.790Z,15.10
2023-12-22T23:52:50.720Z,15.10
2023-12-22T23:55:23.535Z,15.10
2023-12-22T23:57:56.544Z,15.10
